createdAt,value
2018-04-25T00:02:15.080Z,76.10
2018-04-25T00:04:42.694Z,76.20
2018-04-25T00:07:10.144Z,76.10
2018-04-25T00:09:37.817Z,76.00
2018-04-25T00:12:05.291Z,76.00
2018-04-25T00:14:32.732Z,76.00
2018-04-25T00:17:00.225Z,75.90
2018-04-25T00:19:27.704Z,75.80
2018-04-25T00:21:55.191Z,75.70
2018-04-25T00:24:23.455Z,76.40
2018-04-25T00:26:51.093Z,75.60
2018-04-25T00:29:18.579Z,75.60
2018-04-25T00:31:46.077Z,75.50
2018-04-25T00:34:13.524Z,75.40
2018-04-25T00:36:40.977Z,75.40
2018-04-25T00:39:21.088Z,75.30
2018-04-25T00:41:48.547Z,75.20
2018-04-25T00:44:16.027Z,75.10
2018-04-25T00:46:43.968Z,75.00
2018-04-25T00:49:11.460Z,75.00
2018-04-25T00:51:39.703Z,74.80
2018-04-25T00:54:07.223Z,74.80
2018-04-25T00:56:34.795Z,74.80
2018-04-25T00:59:02.281Z,74.80
2018-04-25T01:01:29.732Z,74.70
2018-04-25T01:03:57.258Z,74.70
2018-04-25T01:06:24.802Z,74.70
2018-04-25T01:08:53.056Z,74.60
2018-04-25T01:11:21.338Z,74.70
2018-04-25T01:14:00.654Z,74.40
2018-04-25T01:16:28.166Z,74.60
2018-04-25T01:18:55.708Z,74.50
2018-04-25T01:21:23.161Z,74.40
2018-04-25T01:23:50.709Z,74.30
2018-04-25T01:26:18.970Z,74.20
2018-04-25T01:28:56.095Z,74.20
2018-04-25T01:31:30.147Z,74.20
2018-04-25T01:37:06.656Z,74.90
2018-04-25T01:39:50.818Z,74.10
2018-04-25T01:42:24.333Z,74.10
2018-04-25T01:44:52.560Z,74.10
2018-04-25T01:47:34.368Z,74.10
2018-04-25T01:50:11.745Z,74.00
2018-04-25T01:52:51.144Z,74.00
2018-04-25T01:55:30.472Z,73.90
2018-04-25T01:58:09.736Z,73.90
2018-04-25T02:00:49.094Z,73.90
2018-04-25T02:03:17.167Z,73.90
2018-04-25T02:05:44.638Z,73.80
2018-04-25T02:08:12.110Z,73.70
2018-04-25T02:10:39.731Z,73.70
2018-04-25T02:13:07.205Z,74.10
2018-04-25T02:15:34.680Z,73.70
2018-04-25T02:18:02.137Z,73.80
2018-04-25T02:20:29.596Z,73.70
2018-04-25T02:22:57.051Z,73.70
2018-04-25T02:25:24.533Z,73.70
2018-04-25T02:27:52.754Z,73.60
2018-04-25T02:30:20.306Z,73.60
2018-04-25T02:33:05.691Z,73.60
2018-04-25T02:35:33.185Z,73.60
2018-04-25T02:38:00.636Z,73.60
2018-04-25T02:40:28.148Z,73.60
2018-04-25T02:42:59.466Z,73.60
2018-04-25T02:45:27.680Z,73.60
2018-04-25T02:47:55.725Z,73.60
2018-04-25T02:50:43.029Z,73.60
2018-04-25T02:53:11.317Z,73.60
2018-04-25T02:55:44.843Z,73.60
2018-04-25T02:58:12.436Z,73.60
2018-04-25T03:00:39.903Z,73.60
2018-04-25T03:03:07.385Z,73.60
2018-04-25T03:05:35.620Z,73.60
2018-04-25T03:08:03.109Z,73.50
2018-04-25T03:10:31.357Z,73.60
2018-04-25T03:12:59.034Z,73.50
2018-04-25T03:15:26.481Z,73.60
2018-04-25T03:17:54.032Z,73.60
2018-04-25T03:23:14.363Z,73.70
2018-04-25T03:25:41.817Z,73.70
2018-04-25T03:28:09.271Z,73.80
2018-04-25T03:33:09.493Z,73.80
2018-04-25T03:35:36.960Z,73.70
2018-04-25T03:38:04.439Z,73.80
2018-04-25T03:40:31.899Z,73.80
2018-04-25T03:42:59.396Z,73.80
2018-04-25T03:45:26.936Z,74.60
2018-04-25T03:47:55.185Z,73.90
2018-04-25T03:50:22.746Z,73.90
2018-04-25T03:52:50.204Z,74.00
2018-04-25T03:55:17.795Z,73.90
2018-04-25T03:57:46.027Z,74.00
2018-04-25T04:00:13.628Z,74.00
2018-04-25T04:02:41.881Z,74.80
2018-04-25T04:08:03.337Z,74.00
2018-04-25T04:10:31.600Z,74.10
2018-04-25T04:12:59.065Z,74.00
2018-04-25T04:15:26.544Z,74.10
2018-04-25T04:17:54.226Z,74.20
2018-04-25T04:20:21.780Z,74.10
2018-04-25T04:22:49.325Z,74.20
2018-04-25T04:25:16.851Z,74.20
2018-04-25T04:27:44.385Z,74.30
2018-04-25T04:30:23.099Z,74.20
2018-04-25T04:32:50.729Z,74.40
2018-04-25T04:35:19.999Z,74.40
2018-04-25T04:37:47.575Z,74.50
2018-04-25T04:40:15.907Z,74.70
2018-04-25T04:42:46.175Z,74.60
2018-04-25T04:45:14.496Z,74.70
2018-04-25T04:47:42.244Z,74.60
2018-04-25T04:50:09.777Z,74.70
2018-04-25T04:52:38.513Z,74.80
2018-04-25T04:55:07.013Z,74.80
2018-04-25T04:57:34.529Z,75.00
2018-04-25T05:00:02.076Z,75.00
2018-04-25T05:02:29.612Z,75.10
2018-04-25T05:04:57.244Z,75.20
2018-04-25T05:07:24.780Z,75.70
2018-04-25T05:09:53.586Z,75.40
2018-04-25T05:12:21.144Z,75.50
2018-04-25T05:14:48.664Z,75.50
2018-04-25T05:17:16.227Z,75.70
2018-04-25T05:19:43.801Z,76.40
2018-04-25T05:22:11.341Z,75.70
2018-04-25T05:24:38.942Z,75.60
2018-04-25T05:27:07.200Z,75.90
2018-04-25T05:29:34.714Z,75.80
2018-04-25T05:32:03.065Z,75.90
2018-04-25T05:34:30.702Z,75.90
2018-04-25T05:36:58.525Z,76.00
2018-04-25T05:39:26.127Z,75.80
2018-04-25T05:41:53.773Z,76.40
2018-04-25T05:44:21.368Z,76.90
2018-04-25T05:46:48.932Z,76.10
2018-04-25T05:49:20.555Z,76.30
2018-04-25T05:51:48.261Z,76.30
2018-04-25T05:54:15.849Z,76.50
2018-04-25T05:56:43.533Z,76.90
2018-04-25T05:59:11.135Z,76.80
2018-04-25T06:01:38.686Z,77.00
2018-04-25T06:04:06.278Z,76.70
2018-04-25T06:06:35.476Z,76.70
2018-04-25T06:09:03.075Z,76.70
2018-04-25T06:11:31.225Z,76.70
2018-04-25T06:13:58.771Z,76.70
2018-04-25T06:16:26.276Z,76.60
2018-04-25T06:18:53.862Z,76.70
2018-04-25T06:21:21.472Z,76.80
2018-04-25T06:23:49.778Z,76.90
2018-04-25T06:26:17.298Z,76.80
2018-04-25T06:28:48.936Z,77.10
2018-04-25T06:31:16.450Z,77.00
2018-04-25T06:33:50.746Z,77.20
2018-04-25T06:36:20.237Z,77.20
2018-04-25T06:38:47.779Z,77.20
2018-04-25T06:41:15.422Z,77.50
2018-04-25T06:43:43.041Z,77.50
2018-04-25T06:46:10.601Z,77.40
2018-04-25T06:48:38.848Z,78.20
2018-04-25T06:51:06.341Z,77.90
2018-04-25T06:53:34.035Z,78.00
2018-04-25T06:56:01.506Z,77.90
2018-04-25T06:58:28.980Z,78.10
2018-04-25T07:06:45.429Z,78.60
2018-04-25T07:09:13.303Z,78.60
2018-04-25T07:11:41.625Z,79.30
2018-04-25T07:14:09.223Z,79.20
2018-04-25T07:16:36.626Z,79.80
2018-04-25T07:19:05.034Z,79.80
2018-04-25T07:21:32.557Z,79.80
2018-04-25T07:24:00.029Z,80.40
2018-04-25T07:26:27.640Z,80.40
2018-04-25T07:28:55.094Z,79.90
2018-04-25T07:31:22.635Z,80.40
2018-04-25T07:33:50.103Z,80.80
2018-04-25T07:36:17.629Z,80.40
2018-04-25T07:38:45.132Z,80.70
2018-04-25T07:41:12.714Z,81.30
2018-04-25T07:43:40.981Z,81.00
2018-04-25T07:46:08.521Z,80.80
2018-04-25T07:48:35.989Z,81.00
2018-04-25T07:51:14.512Z,81.70
2018-04-25T07:53:42.030Z,81.50
2018-04-25T07:56:09.576Z,81.40
2018-04-25T07:58:37.142Z,81.20
2018-04-25T08:01:04.642Z,81.10
2018-04-25T08:03:32.282Z,81.20
2018-04-25T08:05:59.803Z,81.30
2018-04-25T08:08:32.361Z,81.30
2018-04-25T08:10:59.832Z,81.80
2018-04-25T08:13:40.038Z,81.00
2018-04-25T08:16:19.954Z,81.00
2018-04-25T08:18:59.444Z,80.70
2018-04-25T08:21:39.713Z,81.00
2018-04-25T08:24:07.267Z,80.60
2018-04-25T08:26:34.761Z,80.20
2018-04-25T08:29:03.068Z,80.10
2018-04-25T08:31:30.664Z,80.10
2018-04-25T08:33:58.157Z,80.40
2018-04-25T08:36:25.637Z,81.10
2018-04-25T08:38:53.203Z,81.00
2018-04-25T08:41:20.706Z,80.40
2018-04-25T08:43:48.206Z,80.30
2018-04-25T08:46:15.716Z,80.80
2018-04-25T08:48:45.398Z,80.40
2018-04-25T08:51:12.872Z,81.00
2018-04-25T08:53:40.366Z,80.30
2018-04-25T08:56:07.885Z,80.20
2018-04-25T08:58:35.380Z,80.60
2018-04-25T09:01:03.678Z,80.20
2018-04-25T09:03:31.183Z,80.00
2018-04-25T09:05:59.426Z,80.20
2018-04-25T09:08:26.997Z,79.90
2018-04-25T09:10:54.546Z,79.90
2018-04-25T09:13:22.128Z,79.40
2018-04-25T09:15:49.711Z,79.50
2018-04-25T09:23:53.128Z,78.90
2018-04-25T09:26:26.784Z,78.70
2018-04-25T09:28:54.317Z,78.20
2018-04-25T09:31:21.884Z,78.20
2018-04-25T09:33:53.319Z,77.90
2018-04-25T09:36:20.827Z,77.70
2018-04-25T09:38:48.354Z,77.60
2018-04-25T09:41:17.977Z,77.80
2018-04-25T09:43:46.252Z,77.90
2018-04-25T09:46:14.569Z,78.20
2018-04-25T09:48:42.273Z,78.70
2018-04-25T09:51:19.620Z,78.10
2018-04-25T09:53:47.185Z,77.50
2018-04-25T09:56:14.696Z,77.40
2018-04-25T09:58:42.949Z,76.60
2018-04-25T10:01:10.487Z,76.60
2018-04-25T10:03:45.507Z,76.40
2018-04-25T10:06:13.384Z,75.90
2018-04-25T10:08:40.872Z,76.00
2018-04-25T10:11:08.350Z,75.60
2018-04-25T10:13:36.803Z,74.90
2018-04-25T10:16:05.718Z,74.90
2018-04-25T10:18:34.139Z,74.50
2018-04-25T10:21:01.749Z,74.30
2018-04-25T10:23:30.265Z,75.20
2018-04-25T10:25:59.201Z,75.10
2018-04-25T10:28:33.782Z,75.60
2018-04-25T10:31:01.329Z,75.60
2018-04-25T10:33:29.646Z,75.40
2018-04-25T10:35:57.204Z,74.70
2018-04-25T10:38:24.713Z,74.10
2018-04-25T10:40:53.001Z,73.40
2018-04-25T10:46:02.860Z,73.80
2018-04-25T10:48:41.177Z,74.50
2018-04-25T10:51:09.980Z,74.40
2018-04-25T10:53:38.382Z,73.80
2018-04-25T10:59:05.517Z,73.90
2018-04-25T11:01:36.406Z,73.20
2018-04-25T11:04:08.002Z,71.90
2018-04-25T11:06:42.075Z,72.70
2018-04-25T11:09:12.213Z,72.10
2018-04-25T11:11:42.483Z,71.80
2018-04-25T11:14:12.033Z,71.70
2018-04-25T11:16:39.755Z,72.20
2018-04-25T11:19:07.467Z,72.50
2018-04-25T11:21:48.405Z,72.40
2018-04-25T11:24:38.029Z,71.50
2018-04-25T11:27:09.008Z,71.80
2018-04-25T11:29:36.561Z,71.50
2018-04-25T11:32:04.169Z,71.20
2018-04-25T11:34:31.806Z,72.00
2018-04-25T11:36:59.668Z,72.00
2018-04-25T11:39:27.311Z,71.80
2018-04-25T11:41:57.774Z,72.10
2018-04-25T11:44:25.985Z,72.10
2018-04-25T11:46:58.237Z,71.30
2018-04-25T11:49:44.583Z,71.70
2018-04-25T11:52:12.311Z,71.60
2018-04-25T11:54:40.145Z,71.10
2018-04-25T11:57:18.680Z,70.40
2018-04-25T11:59:48.835Z,69.50
2018-04-25T12:02:19.078Z,69.30
2018-04-25T12:04:47.537Z,69.90
2018-04-25T12:07:21.911Z,69.70
2018-04-25T12:12:57.827Z,69.50
2018-04-25T12:15:26.213Z,69.10
2018-04-25T12:29:28.997Z,70.00
2018-04-25T12:34:57.332Z,69.60
2018-04-25T12:37:25.053Z,69.80
2018-04-25T12:39:55.146Z,69.40
2018-04-25T12:42:31.924Z,68.10
2018-04-25T12:53:44.113Z,67.20
2018-04-25T12:56:34.104Z,67.10
2018-04-25T12:59:01.940Z,67.00
2018-04-25T13:01:32.236Z,67.10
2018-04-25T13:04:03.530Z,67.40
2018-04-25T13:06:31.266Z,67.50
2018-04-25T13:09:02.228Z,67.80
2018-04-25T13:11:34.590Z,65.90
2018-04-25T13:20:09.715Z,67.10
2018-04-25T13:22:39.395Z,67.50
2018-04-25T13:25:11.270Z,67.90
2018-04-25T13:27:38.933Z,67.90
2018-04-25T13:41:40.054Z,66.20
2018-04-25T13:59:04.016Z,64.80
2018-04-25T14:01:31.953Z,64.90
2018-04-25T18:00:23.566Z,65.80
2018-04-25T18:46:20.811Z,67.00
2018-04-25T18:48:48.459Z,67.10
2018-04-25T19:00:04.096Z,67.60
2018-04-25T19:08:20.725Z,67.90
2018-04-25T19:11:22.013Z,68.20
2018-04-25T19:13:51.429Z,68.80
2018-04-25T19:16:18.988Z,68.10
2018-04-25T19:18:51.542Z,68.30
2018-04-25T19:21:19.063Z,68.30
2018-04-25T19:23:47.245Z,68.40
2018-04-25T19:26:14.767Z,68.40
2018-04-25T19:28:42.384Z,68.40
2018-04-25T19:31:10.741Z,68.40
2018-04-25T19:33:38.308Z,68.20
2018-04-25T19:36:07.493Z,68.50
2018-04-25T19:41:38.575Z,68.50
2018-04-25T19:44:06.919Z,68.80
2018-04-25T19:46:35.256Z,68.70
2018-04-25T20:06:08.168Z,69.30
2018-04-25T20:08:35.751Z,69.30
2018-04-25T20:11:03.296Z,69.30
2018-04-25T20:13:34.221Z,69.30
2018-04-25T20:16:09.467Z,69.40
2018-04-25T20:21:39.390Z,69.60
2018-04-25T20:24:06.912Z,69.70
2018-04-25T20:26:34.433Z,69.80
2018-04-25T20:29:02.051Z,69.70
2018-04-25T20:31:29.561Z,69.70
2018-04-25T20:33:57.148Z,69.80
2018-04-25T20:36:24.716Z,70.00
2018-04-25T20:38:52.274Z,70.00
2018-04-25T20:41:19.780Z,70.00
2018-04-25T20:43:47.603Z,70.20
2018-04-25T20:46:15.828Z,70.30
2018-04-25T21:00:34.956Z,71.50
2018-04-25T21:03:02.550Z,71.90
2018-04-25T21:05:30.094Z,72.90
2018-04-25T21:26:04.968Z,71.40
2018-04-25T21:28:35.340Z,71.30
